createdAt,value
2018-04-27T05:09:30.707Z,17.06
2018-04-27T05:10:40.698Z,17.06
2018-04-27T05:11:51.066Z,17.11
2018-04-27T05:13:00.708Z,17.06
2018-04-27T05:14:10.421Z,17.14
2018-04-27T05:15:20.203Z,17.12
2018-04-27T05:16:29.167Z,17.12
2018-04-27T05:17:38.440Z,17.11
2018-04-27T05:18:48.484Z,17.19
2018-04-27T05:19:57.726Z,17.22
2018-04-27T05:21:07.225Z,17.18
2018-04-27T05:22:16.457Z,17.28
2018-04-27T05:23:26.215Z,17.26
2018-04-27T05:24:35.169Z,17.3
2018-04-27T05:25:44.658Z,17.31
2018-04-27T05:26:53.346Z,17.4
2018-04-27T05:28:02.304Z,17.4
2018-04-27T05:29:11.794Z,17.4
2018-04-27T05:30:21.287Z,17.43
2018-04-27T05:31:30.248Z,17.52
2018-04-27T05:32:39.477Z,17.54
2018-04-27T05:33:48.972Z,17.52
2018-04-27T05:34:58.466Z,17.63
2018-04-27T05:36:07.160Z,17.59
2018-04-27T05:37:16.651Z,17.74
2018-04-27T05:38:26.151Z,17.78
2018-04-27T05:39:35.379Z,17.68
2018-04-27T05:40:45.244Z,17.82
2018-04-27T05:41:54.735Z,17.72
2018-04-27T05:43:04.230Z,17.87
2018-04-27T05:44:13.186Z,17.87
2018-04-27T05:45:22.684Z,17.93
2018-04-27T05:46:32.451Z,17.89
2018-04-27T05:47:42.211Z,17.99
2018-04-27T05:48:51.715Z,17.95
2018-04-27T05:50:01.596Z,17.96
2018-04-27T05:51:11.109Z,17.93
2018-04-27T05:52:20.945Z,17.96
2018-04-27T05:53:30.446Z,17.99
2018-04-27T05:54:40.478Z,17.99
2018-04-27T05:55:49.708Z,17.95
2018-04-27T05:56:59.200Z,18.08
2018-04-27T05:58:08.700Z,17.96
2018-04-27T05:59:18.463Z,18.02
2018-04-27T06:00:27.695Z,18.07
2018-04-27T06:01:37.468Z,18.02
2018-04-27T06:02:46.962Z,18.02
2018-04-27T06:03:56.182Z,18.03
2018-04-27T06:05:05.951Z,18.08
2018-04-27T06:06:14.645Z,18.08
2018-04-27T06:07:24.146Z,18.12
2018-04-27T06:08:33.654Z,18.03
2018-04-27T06:09:43.164Z,18.1
2018-04-27T06:10:52.930Z,18.18
2018-04-27T06:12:02.164Z,18.14
2018-04-27T06:13:11.394Z,18.23
2018-04-27T06:14:20.356Z,18.15
2018-04-27T06:15:29.852Z,18.17
2018-04-27T06:16:39.344Z,18.23
2018-04-27T06:17:48.840Z,18.11
2018-04-27T06:18:58.602Z,18.2
2018-04-27T06:20:07.294Z,18.23
2018-04-27T06:21:16.790Z,18.21
2018-04-27T06:22:26.285Z,18.2
2018-04-27T06:23:36.047Z,18.2
2018-04-27T06:24:45.813Z,18.25
2018-04-27T06:25:55.104Z,18.23
2018-04-27T06:27:04.326Z,18.23
2018-04-27T06:28:13.557Z,18.18
2018-04-27T06:29:23.059Z,18.2
2018-04-27T06:30:32.282Z,18.26
2018-04-27T06:31:42.370Z,18.21
2018-04-27T06:32:51.957Z,18.29
2018-04-27T06:34:01.456Z,18.33
2018-04-27T06:35:10.688Z,18.32
2018-04-27T06:36:19.644Z,18.29
2018-04-27T06:37:29.132Z,18.29
2018-04-27T06:38:38.624Z,18.35
2018-04-27T06:39:47.581Z,18.35
2018-04-27T06:40:57.076Z,18.39
2018-04-27T06:42:06.573Z,18.37
2018-04-27T06:43:15.805Z,18.36
2018-04-27T06:44:25.330Z,18.35
2018-04-27T06:45:34.556Z,18.36
2018-04-27T06:46:43.783Z,18.37
2018-04-27T06:47:52.740Z,18.32
2018-04-27T06:49:02.271Z,18.33
2018-04-27T06:50:12.316Z,18.33
2018-04-27T06:51:22.077Z,18.39
2018-04-27T06:52:31.310Z,18.41
2018-04-27T06:53:41.152Z,18.35
2018-04-27T06:54:51.191Z,18.44
2018-04-27T06:56:00.694Z,18.39
2018-04-27T06:57:10.188Z,18.41
2018-04-27T06:58:19.956Z,18.52
2018-04-27T06:59:29.503Z,18.51
2018-04-27T07:00:39.000Z,18.5
2018-04-27T07:01:48.494Z,18.54
2018-04-27T07:02:57.730Z,18.51
2018-04-27T07:04:06.969Z,18.48
2018-04-27T07:05:17.116Z,18.57
2018-04-27T07:06:26.315Z,18.42
2018-04-27T07:07:36.153Z,18.55
2018-04-27T07:08:45.926Z,18.66
2018-04-27T07:09:55.163Z,18.52
2018-04-27T07:11:04.387Z,18.54
2018-04-27T07:12:13.629Z,18.54
2018-04-27T07:13:23.396Z,18.57
2018-04-27T07:14:32.627Z,18.52
2018-04-27T07:15:42.396Z,18.6
2018-04-27T07:16:52.016Z,18.55
2018-04-27T07:18:02.281Z,18.7
2018-04-27T07:19:11.783Z,18.66
2018-04-27T07:20:21.284Z,18.67
2018-04-27T07:21:30.511Z,18.65
2018-04-27T07:22:39.472Z,18.65
2018-04-27T07:23:48.700Z,18.67
2018-04-27T07:24:58.743Z,18.69
2018-04-27T07:26:08.511Z,18.67
2018-04-27T07:27:18.544Z,18.66
2018-04-27T07:28:28.043Z,18.66
2018-04-27T07:29:37.271Z,18.72
2018-04-27T07:30:46.763Z,18.72
2018-04-27T07:31:56.258Z,18.66
2018-04-27T07:33:05.761Z,18.73
2018-04-27T07:34:15.517Z,18.73
2018-04-27T07:35:25.103Z,18.72
2018-04-27T07:36:34.598Z,18.75
2018-04-27T07:37:44.095Z,18.76
2018-04-27T07:38:53.592Z,18.69
2018-04-27T07:40:02.826Z,18.76
2018-04-27T07:41:12.059Z,18.8
2018-04-27T07:42:21.554Z,18.78
2018-04-27T07:43:30.792Z,18.76
2018-04-27T07:44:40.560Z,18.81
2018-04-27T07:45:50.060Z,18.75
2018-04-27T07:46:59.553Z,18.81
2018-04-27T07:48:08.245Z,18.76
2018-04-27T07:49:17.736Z,18.78
2018-04-27T07:50:27.498Z,18.8
2018-04-27T07:51:37.028Z,18.85
2018-04-27T07:52:46.260Z,18.82
2018-04-27T07:53:55.756Z,18.78
2018-04-27T07:55:05.259Z,18.8
2018-04-27T07:56:14.219Z,18.81
2018-04-27T07:57:23.714Z,18.8
2018-04-27T07:58:33.211Z,18.84
2018-04-27T07:59:42.713Z,18.82
2018-04-27T08:00:52.210Z,18.78
2018-04-27T08:02:01.715Z,18.87
2018-04-27T08:03:11.317Z,18.82
2018-04-27T08:04:20.543Z,18.82
2018-04-27T08:05:29.775Z,18.88
2018-04-27T08:06:38.733Z,18.85
2018-04-27T08:07:48.510Z,18.8
2018-04-27T08:08:58.430Z,18.88
2018-04-27T08:10:08.197Z,18.91
2018-04-27T08:11:18.039Z,18.82
2018-04-27T08:12:27.852Z,18.75
2018-04-27T08:13:37.345Z,18.87
2018-04-27T08:14:46.845Z,18.76
2018-04-27T08:15:56.086Z,18.8
2018-04-27T08:17:05.858Z,18.78
2018-04-27T08:18:15.091Z,18.81
2018-04-27T08:19:24.589Z,18.87
2018-04-27T08:20:34.083Z,18.81
2018-04-27T08:21:43.869Z,18.8
2018-04-27T08:22:53.368Z,18.84
2018-04-27T08:24:02.059Z,18.81
2018-04-27T08:25:11.552Z,18.78
2018-04-27T08:26:21.324Z,18.85
2018-04-27T08:27:30.547Z,18.82
2018-04-27T08:28:40.044Z,18.81
2018-04-27T08:29:49.339Z,18.85
2018-04-27T08:30:58.843Z,18.87
2018-04-27T08:32:08.345Z,18.87
2018-04-27T08:33:18.104Z,18.82
2018-04-27T08:34:27.872Z,18.87
2018-04-27T08:35:37.638Z,18.87
2018-04-27T08:36:46.870Z,18.84
2018-04-27T08:37:56.637Z,18.85
2018-04-27T08:39:06.136Z,18.78
2018-04-27T08:40:15.898Z,18.84
2018-04-27T08:41:25.123Z,18.85
2018-04-27T08:42:34.625Z,18.82
2018-04-27T08:43:43.886Z,18.8
2018-04-27T08:44:53.085Z,18.85
2018-04-27T08:46:03.120Z,18.88
2018-04-27T08:47:12.346Z,18.82
2018-04-27T08:48:22.108Z,18.88
2018-04-27T08:49:31.332Z,18.8
2018-04-27T08:50:41.310Z,18.85
2018-04-27T08:51:51.088Z,18.9
2018-04-27T08:53:00.586Z,18.88
2018-04-27T08:54:09.818Z,18.85
2018-04-27T08:55:19.043Z,18.82
2018-04-27T08:56:28.276Z,18.81
2018-04-27T08:57:37.514Z,18.78
2018-04-27T08:58:46.740Z,18.84
2018-04-27T08:59:56.230Z,18.82
2018-04-27T09:01:05.731Z,18.84
2018-04-27T09:02:15.495Z,18.76
2018-04-27T09:03:24.991Z,18.88
2018-04-27T09:04:35.033Z,18.81
2018-04-27T09:05:44.268Z,18.91
2018-04-27T09:06:53.499Z,18.87
2018-04-27T09:08:03.014Z,18.9
2018-04-27T09:09:12.783Z,18.87
2018-04-27T09:10:22.277Z,18.85
2018-04-27T09:11:31.237Z,18.92
2018-04-27T09:12:41.002Z,18.9
2018-04-27T09:13:50.225Z,18.88
2018-04-27T09:14:59.180Z,18.9
2018-04-27T09:16:08.961Z,18.85
2018-04-27T09:17:18.783Z,18.9
2018-04-27T09:18:28.009Z,18.9
2018-04-27T09:19:37.507Z,18.88
2018-04-27T09:20:47.268Z,18.92
2018-04-27T09:21:56.233Z,18.87
2018-04-27T09:23:05.460Z,18.88
2018-04-27T09:24:14.958Z,18.95
2018-04-27T09:25:24.534Z,18.88
2018-04-27T09:26:34.300Z,18.85
2018-04-27T09:27:43.527Z,18.9
2018-04-27T09:28:52.483Z,18.9
2018-04-27T09:30:01.713Z,18.92
2018-04-27T09:31:10.935Z,18.92
2018-04-27T09:32:20.610Z,18.92
2018-04-27T09:33:30.131Z,18.88
2018-04-27T09:34:39.630Z,18.88
2018-04-27T09:35:49.391Z,18.91
2018-04-27T09:36:58.083Z,18.92
2018-04-27T09:38:08.115Z,18.88
2018-04-27T09:39:17.343Z,18.92
2018-04-27T09:40:27.108Z,18.92
2018-04-27T09:41:36.611Z,18.88
2018-04-27T09:42:46.381Z,18.94
2018-04-27T09:43:55.887Z,18.94
2018-04-27T09:45:05.381Z,18.91
2018-04-27T09:46:14.344Z,18.9
2018-04-27T09:47:23.847Z,18.9
2018-04-27T09:48:33.352Z,18.85
2018-04-27T09:49:43.392Z,18.94
2018-04-27T09:50:53.350Z,18.9
2018-04-27T09:52:03.388Z,18.9
2018-04-27T09:53:13.168Z,18.92
2018-04-27T09:54:22.399Z,18.91
2018-04-27T09:55:31.629Z,18.88
2018-04-27T09:56:40.854Z,18.9
2018-04-27T09:57:50.635Z,18.92
2018-04-27T09:58:59.858Z,18.9
2018-04-27T10:00:09.094Z,18.91
2018-04-27T10:01:18.325Z,18.91
2018-04-27T10:02:27.561Z,18.88
2018-04-27T10:03:36.787Z,18.95
2018-04-27T10:04:46.283Z,18.91
2018-04-27T10:05:56.321Z,18.91
2018-04-27T10:07:05.816Z,18.87
2018-04-27T10:08:15.313Z,18.94
2018-04-27T10:09:25.076Z,18.91
2018-04-27T10:10:34.582Z,18.88
2018-04-27T10:11:43.806Z,18.91
2018-04-27T10:12:53.033Z,18.94
2018-04-27T10:14:02.809Z,18.92
2018-04-27T10:15:12.672Z,18.87
2018-04-27T10:16:22.177Z,18.9
2018-04-27T10:17:32.290Z,18.99
2018-04-27T10:18:42.320Z,18.95
2018-04-27T10:19:52.079Z,18.98
2018-04-27T10:21:01.303Z,18.94
2018-04-27T10:22:10.557Z,19
2018-04-27T10:23:20.053Z,18.9
2018-04-27T10:24:29.820Z,19.07
2018-04-27T10:25:39.591Z,18.99
2018-04-27T10:26:49.619Z,18.99
2018-04-27T10:27:59.115Z,18.95
2018-04-27T10:29:09.150Z,19.02
2018-04-27T10:30:18.923Z,19
2018-04-27T10:31:28.687Z,18.94
2018-04-27T10:32:38.195Z,18.95
2018-04-27T10:33:47.422Z,18.91
2018-04-27T10:34:56.927Z,19.02
2018-04-27T10:36:05.892Z,18.98
2018-04-27T10:37:15.677Z,18.94
2018-04-27T10:38:25.469Z,19.02
2018-04-27T10:39:35.231Z,19.08
2018-04-27T10:40:44.457Z,19.02
2018-04-27T10:41:53.691Z,18.99
2018-04-27T10:43:03.253Z,19
2018-04-27T10:44:13.187Z,19.04
2018-04-27T10:45:22.417Z,18.98
2018-04-27T10:46:31.654Z,18.95
2018-04-27T10:47:40.882Z,18.98
2018-04-27T10:48:49.861Z,19.07
2018-04-27T10:49:59.889Z,19
2018-04-27T10:51:09.126Z,19.11
2018-04-27T10:52:18.632Z,19.02
2018-04-27T10:53:28.124Z,19.06
2018-04-27T10:54:37.616Z,19.02
2018-04-27T10:55:47.117Z,19.02
2018-04-27T10:56:56.341Z,19.08
2018-04-27T10:58:05.568Z,18.99
2018-04-27T10:59:15.071Z,19.02
2018-04-27T11:00:25.103Z,19.02
2018-04-27T11:01:34.605Z,19.06
2018-04-27T11:02:43.566Z,19
2018-04-27T11:03:52.797Z,19.02
2018-04-27T11:05:02.294Z,19.06
2018-04-27T11:06:11.518Z,19.06
2018-04-27T11:07:20.485Z,19.06
2018-04-27T11:08:30.259Z,19.07
2018-04-27T11:09:39.792Z,19.1
2018-04-27T11:10:49.571Z,19.02
2018-04-27T11:11:59.133Z,19.04
2018-04-27T11:13:08.700Z,19.11
2018-04-27T11:14:18.468Z,19.02
2018-04-27T11:15:27.967Z,19.13
2018-04-27T11:16:38.007Z,19.13
2018-04-27T11:17:48.177Z,19.06
2018-04-27T11:18:57.943Z,19.07
2018-04-27T11:20:07.710Z,19.06
2018-04-27T11:21:17.249Z,19.06
2018-04-27T11:22:26.477Z,19.07
2018-04-27T11:23:36.237Z,19.13
2018-04-27T11:24:45.732Z,19.13
2018-04-27T11:25:54.963Z,19.08
2018-04-27T11:27:03.929Z,19.1
2018-04-27T11:28:12.886Z,19.16
2018-04-27T11:29:22.654Z,19.1
2018-04-27T11:30:31.700Z,19.16
2018-04-27T11:31:41.466Z,19.14
2018-04-27T11:33:23.634Z,19.08
2018-04-27T11:34:33.128Z,19.1
2018-04-27T11:35:42.621Z,19.13
2018-04-27T11:36:51.852Z,19.14
2018-04-27T11:38:01.876Z,19.14
2018-04-27T11:39:11.099Z,19.14
2018-04-27T11:40:20.323Z,19.14
2018-04-27T11:41:29.820Z,19.18
2018-04-27T11:42:39.045Z,19.14
2018-04-27T11:43:48.534Z,19.18
2018-04-27T11:44:58.046Z,19.16
2018-04-27T11:46:07.000Z,19.11
2018-04-27T11:47:16.765Z,19.21
2018-04-27T11:48:26.260Z,19.07
2018-04-27T11:49:35.745Z,19.21
2018-04-27T11:50:44.973Z,19.16
2018-04-27T11:51:54.735Z,19.19
2018-04-27T11:53:04.298Z,19.11
2018-04-27T11:54:14.103Z,19.13
2018-04-27T11:55:23.865Z,19.21
2018-04-27T11:56:33.629Z,19.14
2018-04-27T11:57:42.854Z,19.14
2018-04-27T11:58:52.345Z,19.19
2018-04-27T12:00:01.662Z,19.22
2018-04-27T12:01:10.901Z,19.23
2018-04-27T12:02:20.658Z,19.16
2018-04-27T12:03:29.882Z,19.19
2018-04-27T12:04:39.119Z,19.16
2018-04-27T12:05:48.884Z,19.21
2018-04-27T12:06:58.384Z,19.18
2018-04-27T12:08:07.609Z,19.16
2018-04-27T12:09:17.100Z,19.19
2018-04-27T12:10:26.866Z,19.19
2018-04-27T12:11:36.088Z,19.13
2018-04-27T12:12:45.585Z,19.25
2018-04-27T12:13:54.812Z,19.13
2018-04-27T12:15:04.049Z,19.19
2018-04-27T12:16:13.552Z,19.22
2018-04-27T12:17:23.073Z,19.21
2018-04-27T12:18:32.561Z,19.22
2018-04-27T12:19:42.317Z,19.18
2018-04-27T12:20:51.278Z,19.23
2018-04-27T12:22:00.500Z,19.21
2018-04-27T12:23:10.274Z,19.19
2018-04-27T12:24:19.843Z,19.21
2018-04-27T12:25:28.808Z,19.19
2018-04-27T12:26:38.570Z,19.26
2018-04-27T12:27:48.068Z,19.28
2018-04-27T12:28:57.296Z,19.19
2018-04-27T12:30:06.526Z,19.18
2018-04-27T12:31:15.729Z,19.26
2018-04-27T12:32:24.828Z,19.28
2018-04-27T12:33:34.590Z,19.23
2018-04-27T12:34:43.817Z,19.22
2018-04-27T12:35:52.770Z,19.26
2018-04-27T12:37:01.727Z,19.28
2018-04-27T12:38:10.689Z,19.25
2018-04-27T12:39:19.911Z,19.23
2018-04-27T12:40:29.133Z,19.26
2018-04-27T12:41:38.378Z,19.28
2018-04-27T12:42:48.141Z,19.28
2018-04-27T12:43:57.367Z,19.29
2018-04-27T12:45:06.989Z,19.32
2018-04-27T12:46:16.587Z,19.29
2018-04-27T12:47:26.348Z,19.25
2018-04-27T12:48:35.845Z,19.28
2018-04-27T12:49:45.868Z,19.29
2018-04-27T12:50:55.094Z,19.32
2018-04-27T12:52:04.883Z,19.32
2018-04-27T12:53:14.739Z,19.31
2018-04-27T12:54:24.239Z,19.33
2018-04-27T12:55:33.733Z,19.28
2018-04-27T12:56:43.493Z,19.33
2018-04-27T12:57:52.995Z,19.29
2018-04-27T12:59:02.541Z,19.28
2018-04-27T13:00:12.302Z,19.32
2018-04-27T13:01:21.524Z,19.29
2018-04-27T13:02:31.575Z,19.36
2018-04-27T13:03:41.606Z,19.28
2018-04-27T13:04:51.094Z,19.36
2018-04-27T13:06:01.123Z,19.32
2018-04-27T13:07:10.089Z,19.33
2018-04-27T13:08:19.859Z,19.36
2018-04-27T13:09:29.080Z,19.36
2018-04-27T13:10:38.579Z,19.33
2018-04-27T13:11:48.340Z,19.36
2018-04-27T13:12:58.098Z,19.31
2018-04-27T13:14:07.319Z,19.25
2018-04-27T13:15:17.089Z,19.29
2018-04-27T13:16:26.314Z,19.33
2018-04-27T13:17:35.536Z,19.37
2018-04-27T13:18:44.496Z,19.33
2018-04-27T13:19:53.992Z,19.31
2018-04-27T13:21:03.762Z,19.33
2018-04-27T13:22:13.526Z,19.37
2018-04-27T13:23:23.282Z,19.26
2018-04-27T13:24:33.312Z,19.22
2018-04-27T13:25:43.074Z,19.32
2018-04-27T13:26:52.309Z,19.25
2018-04-27T13:28:01.814Z,19.23
2018-04-27T13:29:11.296Z,19.28
2018-04-27T13:30:20.519Z,19.22
2018-04-27T13:31:29.737Z,19.22
2018-04-27T13:32:38.964Z,19.23
2018-04-27T13:33:48.191Z,19.22
2018-04-27T13:34:57.418Z,19.29
2018-04-27T13:36:06.643Z,19.29
2018-04-27T13:37:15.877Z,19.23
2018-04-27T13:38:25.369Z,19.32
2018-04-27T13:39:35.128Z,19.28
2018-04-27T13:40:44.081Z,19.32
2018-04-27T13:41:53.839Z,19.28
2018-04-27T13:43:03.065Z,19.28
2018-04-27T13:44:12.827Z,19.36
2018-04-27T13:45:22.052Z,19.33
2018-04-27T13:46:31.563Z,19.26
2018-04-27T13:47:41.323Z,19.26
2018-04-27T13:48:51.355Z,19.28
2018-04-27T13:50:01.397Z,19.25
2018-04-27T13:51:10.626Z,19.32
2018-04-27T13:52:20.122Z,19.36
2018-04-27T13:53:28.817Z,19.39
2018-04-27T13:54:37.785Z,19.4
2018-04-27T13:55:47.021Z,19.37
2018-04-27T13:56:56.253Z,19.44
2018-04-27T13:58:06.009Z,19.44
2018-04-27T13:59:15.506Z,19.43
2018-04-27T14:00:24.735Z,19.4
2018-04-27T14:01:34.766Z,19.39
2018-04-27T14:02:44.633Z,19.44
2018-04-27T14:03:54.605Z,19.33
2018-04-27T14:05:04.113Z,19.43
2018-04-27T14:06:13.654Z,19.4
2018-04-27T14:07:23.162Z,19.43
2018-04-27T14:08:32.655Z,19.37
2018-04-27T14:09:42.209Z,19.43
2018-04-27T14:10:52.053Z,19.4
2018-04-27T14:12:01.284Z,19.43
2018-04-27T14:13:10.802Z,19.41
2018-04-27T14:14:20.318Z,19.43
2018-04-27T14:15:29.012Z,19.46
2018-04-27T14:16:38.255Z,19.48
2018-04-27T14:17:47.744Z,19.43
2018-04-27T14:18:57.502Z,19.5
2018-04-27T14:20:06.487Z,19.43
2018-04-27T14:21:16.345Z,19.55
2018-04-27T14:22:26.111Z,19.39
2018-04-27T14:23:35.077Z,19.5
2018-04-27T14:24:44.840Z,19.5
2018-04-27T14:25:53.797Z,19.55
2018-04-27T14:27:03.292Z,19.41
2018-04-27T14:28:12.252Z,19.36
2018-04-27T14:29:21.207Z,19.41
2018-04-27T14:30:30.441Z,19.51
2018-04-27T14:31:39.943Z,19.47
2018-04-27T14:32:49.443Z,19.47
2018-04-27T14:33:58.678Z,19.54
2018-04-27T14:35:08.441Z,19.51
2018-04-27T14:36:17.936Z,19.47
2018-04-27T14:37:26.894Z,19.5
2018-04-27T14:38:36.392Z,19.48
2018-04-27T14:39:45.886Z,19.5
2018-04-27T14:40:55.399Z,19.54
2018-04-27T14:42:05.041Z,19.46
2018-04-27T14:43:14.002Z,19.4
2018-04-27T14:44:23.224Z,19.32
2018-04-27T14:45:31.916Z,19.36
2018-04-27T14:46:41.850Z,19.28
2018-04-27T14:47:51.895Z,19.37
2018-04-27T14:49:02.136Z,19.39
2018-04-27T14:50:12.189Z,19.29
2018-04-27T14:51:21.688Z,19.36
2018-04-27T14:52:31.288Z,19.37
2018-04-27T14:53:41.288Z,19.39
2018-04-27T14:54:50.787Z,19.36
2018-04-27T14:56:00.288Z,19.4
2018-04-27T14:57:09.527Z,19.41
2018-04-27T14:58:19.041Z,19.4
2018-04-27T14:59:27.999Z,19.4
2018-04-27T15:00:37.552Z,19.44
2018-04-27T15:01:46.777Z,19.47
2018-04-27T15:02:56.271Z,19.37
2018-04-27T15:04:05.493Z,19.47
2018-04-27T15:05:14.448Z,19.46
2018-04-27T15:06:23.407Z,19.43
2018-04-27T15:07:33.179Z,19.46
2018-04-27T15:08:42.944Z,19.47
2018-04-27T15:09:52.436Z,19.5
2018-04-27T15:11:01.939Z,19.44
2018-04-27T15:12:11.569Z,19.54
2018-04-27T15:13:21.420Z,19.55
2018-04-27T15:14:30.909Z,19.51
2018-04-27T15:15:40.711Z,19.54
2018-04-27T15:16:50.211Z,19.54
2018-04-27T15:17:59.443Z,19.58
2018-04-27T15:19:09.277Z,19.5
2018-04-27T15:20:19.041Z,19.58
2018-04-27T15:21:28.267Z,19.51
2018-04-27T15:22:37.489Z,19.48
2018-04-27T15:23:47.248Z,19.55
2018-04-27T15:24:57.016Z,19.61
2018-04-27T15:26:05.984Z,19.54
2018-04-27T15:27:15.482Z,19.55
2018-04-27T15:28:25.517Z,19.54
2018-04-27T15:29:35.014Z,19.54
2018-04-27T15:30:44.247Z,19.56
2018-04-27T15:31:53.480Z,19.58
2018-04-27T15:33:02.977Z,19.5
2018-04-27T15:34:12.213Z,19.48
2018-04-27T15:35:22.249Z,19.59
2018-04-27T15:36:31.739Z,19.59
2018-04-27T15:37:40.971Z,19.54
2018-04-27T15:38:50.742Z,19.58
2018-04-27T15:40:00.358Z,19.58
2018-04-27T15:41:09.973Z,19.58
2018-04-27T15:42:18.929Z,19.59
2018-04-27T15:43:28.426Z,19.54
2018-04-27T15:44:37.114Z,19.59
2018-04-27T15:45:46.611Z,19.56
2018-04-27T15:46:56.392Z,19.62
2018-04-27T15:48:05.638Z,19.58
2018-04-27T15:49:15.135Z,19.59
2018-04-27T15:50:24.902Z,19.55
2018-04-27T15:51:34.665Z,19.58
2018-04-27T15:52:43.903Z,19.59
2018-04-27T15:53:53.932Z,19.59
2018-04-27T15:55:03.158Z,19.62
2018-04-27T15:56:12.659Z,19.62
2018-04-27T15:57:22.714Z,19.61
2018-04-27T15:58:32.901Z,19.56
2018-04-27T15:59:42.129Z,19.63
2018-04-27T16:00:51.666Z,19.69
2018-04-27T16:02:01.491Z,19.58
2018-04-27T16:03:10.982Z,19.56
2018-04-27T16:04:20.474Z,19.63
2018-04-27T16:05:30.315Z,19.65
2018-04-27T16:06:40.350Z,19.63
2018-04-27T16:07:50.391Z,19.62
2018-04-27T16:09:00.156Z,19.59
2018-04-27T16:10:09.657Z,19.65
2018-04-27T16:11:19.709Z,19.63
2018-04-27T16:12:29.279Z,19.58
2018-04-27T16:13:38.769Z,19.59
2018-04-27T16:14:48.050Z,19.59
2018-04-27T16:15:57.596Z,19.61
2018-04-27T16:17:06.829Z,19.61
2018-04-27T16:18:16.851Z,19.61
2018-04-27T16:19:26.340Z,19.66
2018-04-27T16:20:36.106Z,19.62
2018-04-27T16:21:45.332Z,19.69
2018-04-27T16:22:54.826Z,19.68
2018-04-27T16:24:04.858Z,19.63
2018-04-27T16:25:14.616Z,19.74
2018-04-27T16:26:24.112Z,19.63
2018-04-27T16:27:33.889Z,19.66
2018-04-27T16:28:42.849Z,19.73
2018-04-27T16:29:52.077Z,19.69
2018-04-27T16:31:01.305Z,19.73
2018-04-27T16:32:10.528Z,19.65
2018-04-27T16:33:19.757Z,19.69
2018-04-27T16:34:29.245Z,19.69
2018-04-27T16:35:38.742Z,19.68
2018-04-27T16:36:47.781Z,19.74
2018-04-27T16:37:57.008Z,19.73
2018-04-27T16:39:06.524Z,19.71
2018-04-27T16:40:16.285Z,19.73
2018-04-27T16:41:26.311Z,19.71
2018-04-27T16:42:35.535Z,19.83
2018-04-27T16:43:45.032Z,19.84
2018-04-27T16:44:53.990Z,19.78
2018-04-27T16:46:02.951Z,19.83
2018-04-27T16:47:12.179Z,19.83
2018-04-27T16:48:21.955Z,19.84
2018-04-27T16:49:31.457Z,19.84
2018-04-27T16:50:40.425Z,19.84
2018-04-27T16:51:50.190Z,19.83
2018-04-27T16:53:00.220Z,19.83
2018-04-27T16:54:09.709Z,19.91
2018-04-27T16:55:18.939Z,19.87
2018-04-27T16:56:28.707Z,19.78
2018-04-27T16:57:37.935Z,19.66
2018-04-27T16:58:47.449Z,19.65
2018-04-27T16:59:56.968Z,19.68
2018-04-27T17:01:06.464Z,19.74
2018-04-27T17:02:16.229Z,19.71
2018-04-27T17:03:25.719Z,19.66
2018-04-27T17:04:35.223Z,19.73
2018-04-27T17:05:44.716Z,19.73
2018-04-27T17:06:53.948Z,19.84
2018-04-27T17:08:03.178Z,19.78
2018-04-27T17:09:13.215Z,19.84
2018-04-27T17:10:22.714Z,19.86
2018-04-27T17:11:31.940Z,19.81
2018-04-27T17:12:41.172Z,19.81
2018-04-27T17:13:50.667Z,19.83
2018-04-27T17:14:59.896Z,19.81
2018-04-27T17:16:09.148Z,19.84
2018-04-27T17:17:18.633Z,19.86
2018-04-27T17:18:27.319Z,19.8
2018-04-27T17:19:36.542Z,19.81
2018-04-27T17:20:46.577Z,19.86
2018-04-27T17:21:56.074Z,19.81
2018-04-27T17:23:05.299Z,19.8
2018-04-27T17:24:14.795Z,19.87
2018-04-27T17:25:24.555Z,19.84
2018-04-27T17:26:33.916Z,19.84
2018-04-27T17:27:43.585Z,19.8
2018-04-27T17:28:53.162Z,19.86
2018-04-27T17:30:02.128Z,19.87
2018-04-27T17:31:11.360Z,19.87
2018-04-27T17:32:20.588Z,19.88
2018-04-27T17:33:30.418Z,19.83
2018-04-27T17:34:39.641Z,19.86
2018-04-27T17:35:48.875Z,19.94
2018-04-27T17:36:58.795Z,19.92
2018-04-27T17:38:09.110Z,19.87
2018-04-27T17:39:18.342Z,19.95
2018-04-27T17:40:27.921Z,19.83
2018-04-27T17:41:37.706Z,19.91
2018-04-27T17:42:47.479Z,19.95
2018-04-27T17:43:56.435Z,19.84
2018-04-27T17:45:06.208Z,19.92
2018-04-27T17:46:15.438Z,19.96
2018-04-27T17:47:25.200Z,19.94
2018-04-27T17:48:34.961Z,19.94
2018-04-27T17:49:44.459Z,19.95
2018-04-27T17:50:54.222Z,19.83
2018-04-27T17:52:03.720Z,19.94
2018-04-27T17:53:13.773Z,19.87
2018-04-27T17:54:23.270Z,19.96
2018-04-27T17:55:33.118Z,19.94
2018-04-27T17:56:42.908Z,19.96
2018-04-27T17:57:52.405Z,19.83
2018-04-27T17:59:02.171Z,19.88
2018-04-27T18:00:11.668Z,19.88
2018-04-27T18:01:21.162Z,19.88
2018-04-27T18:02:30.923Z,19.81
2018-04-27T18:03:40.145Z,19.98
2018-04-27T18:04:49.644Z,19.92
2018-04-27T18:05:59.128Z,19.96
2018-04-27T18:07:08.892Z,19.99
2018-04-27T18:08:18.391Z,19.98
2018-04-27T18:09:27.900Z,20.05
2018-04-27T18:10:37.657Z,19.87
2018-04-27T18:11:47.458Z,19.91
2018-04-27T18:12:57.465Z,19.86
2018-04-27T18:14:06.686Z,19.88
2018-04-27T18:15:15.927Z,19.94
2018-04-27T18:16:25.418Z,19.98
2018-04-27T18:17:35.182Z,19.86
2018-04-27T18:18:44.875Z,19.83
2018-04-27T18:19:54.108Z,19.81
2018-04-27T18:21:03.336Z,19.83
2018-04-27T18:22:12.292Z,19.84
2018-04-27T18:23:22.056Z,19.87
2018-04-27T18:24:32.091Z,19.86
2018-04-27T18:25:41.510Z,19.81
2018-04-27T18:26:51.378Z,19.84
2018-04-27T18:28:00.605Z,19.84
2018-04-27T18:29:10.383Z,19.8
2018-04-27T18:30:19.620Z,19.88
2018-04-27T18:31:28.846Z,19.84
2018-04-27T18:32:38.385Z,19.84
2018-04-27T18:33:48.047Z,19.86
2018-04-27T18:34:57.277Z,19.91
2018-04-27T18:36:06.519Z,19.86
2018-04-27T18:37:16.019Z,19.87
2018-04-27T18:38:24.977Z,19.84
2018-04-27T18:39:34.483Z,19.87
2018-04-27T18:40:43.711Z,19.98
2018-04-27T18:41:52.937Z,20.03
2018-04-27T18:43:02.979Z,20.05
2018-04-27T18:44:12.834Z,19.98
2018-04-27T18:45:22.328Z,20.03
2018-04-27T18:46:31.554Z,20.05
2018-04-27T18:47:40.517Z,20.06
2018-04-27T18:48:50.293Z,20.1
2018-04-27T18:49:59.851Z,20.14
2018-04-27T18:51:09.619Z,20.16
2018-04-27T18:52:18.845Z,20.14
2018-04-27T18:53:28.414Z,20.16
2018-04-27T18:54:37.659Z,20.08
2018-04-27T18:55:47.063Z,20.13
2018-04-27T18:56:56.323Z,20.16
2018-04-27T18:58:06.440Z,20.18
2018-04-27T18:59:16.075Z,20.17
2018-04-27T19:00:25.567Z,20.14
2018-04-27T19:01:34.642Z,20.17
2018-04-27T19:02:43.869Z,20.2
2018-04-27T19:03:53.397Z,20.21
2018-04-27T19:05:03.489Z,20.18
2018-04-27T19:06:14.011Z,20.2
2018-04-27T19:07:22.712Z,20.13
2018-04-27T19:08:32.524Z,20.13
2018-04-27T19:09:42.319Z,20.2
2018-04-27T19:10:51.818Z,20.2
2018-04-27T19:12:01.192Z,20.2
2018-04-27T19:13:11.175Z,20.13
2018-04-27T19:14:20.880Z,20.16
2018-04-27T19:15:30.585Z,20.17
2018-04-27T19:16:40.087Z,20.21
2018-04-27T19:17:49.579Z,20.24
2018-04-27T19:18:59.081Z,20.16
2018-04-27T19:20:08.521Z,20.16
2018-04-27T19:21:18.020Z,20.23
2018-04-27T19:22:27.518Z,20.23
2018-04-27T19:23:37.011Z,20.2
2018-04-27T19:24:46.522Z,20.18
2018-04-27T19:25:56.288Z,20.24
2018-04-27T19:27:05.251Z,20.24
2018-04-27T19:28:14.738Z,20.11
2018-04-27T19:29:24.677Z,20.21
2018-04-27T19:30:34.681Z,20.24
2018-04-27T19:31:44.267Z,20.26
2018-04-27T19:32:53.771Z,20.28
2018-04-27T19:34:03.552Z,20.33
2018-04-27T19:35:12.791Z,20.23
2018-04-27T19:36:21.952Z,20.29
2018-04-27T19:37:31.150Z,20.29
2018-04-27T19:38:40.800Z,20.23
2018-04-27T19:39:51.029Z,20.13
2018-04-27T19:41:00.970Z,20.16
2018-04-27T19:42:10.239Z,20.11
2018-04-27T19:43:20.324Z,20.17
2018-04-27T19:44:29.922Z,20.16
2018-04-27T19:45:39.562Z,20.16
2018-04-27T19:46:49.543Z,20.18
2018-04-27T19:47:59.325Z,20.18
2018-04-27T19:49:09.255Z,20.16
2018-04-27T19:50:18.874Z,20.16
2018-04-27T19:51:28.256Z,20.21
2018-04-27T19:52:37.795Z,20.16
2018-04-27T19:53:47.076Z,20.13
2018-04-27T19:54:56.400Z,20.2
2018-04-27T19:56:06.719Z,20.18
2018-04-27T19:57:15.742Z,20.18
2018-04-27T19:58:26.068Z,20.2
2018-04-27T19:59:35.350Z,20.17
2018-04-27T20:00:44.918Z,20.16
2018-04-27T20:01:54.862Z,20.18
2018-04-27T20:03:04.653Z,20.23
2018-04-27T20:04:14.422Z,20.13
2018-04-27T20:05:23.960Z,20.16
2018-04-27T20:06:34.146Z,20.21
2018-04-27T20:07:43.473Z,20.16